createdAt,value
2022-09-14T00:01:26.565Z,95661.38
2022-09-14T00:03:55.243Z,95633.28
2022-09-14T00:06:23.301Z,95661.44
2022-09-14T00:08:54.198Z,95653.91
2022-09-14T00:11:23.828Z,95613.72
2022-09-14T00:13:51.746Z,95649.34
2022-09-14T00:16:21.615Z,95635.13
2022-09-14T00:18:52.257Z,95641.47
2022-09-14T00:21:20.217Z,95632.00
2022-09-14T00:23:48.123Z,95622.56
2022-09-14T00:26:18.685Z,95616.84
2022-09-14T00:28:47.975Z,95631.28
2022-09-14T00:31:16.480Z,95630.72
2022-09-14T00:33:47.323Z,95625.59
2022-09-14T00:36:18.578Z,95620.16
2022-09-14T00:38:46.919Z,95616.66
2022-09-14T00:41:17.950Z,95618.88
2022-09-14T00:43:57.389Z,95630.25
2022-09-14T00:46:26.850Z,95619.94
2022-09-14T00:48:55.013Z,95620.25
2022-09-14T00:51:23.426Z,95614.00
2022-09-14T00:53:51.419Z,95615.53
2022-09-14T00:56:20.891Z,95622.69
2022-09-14T00:58:51.349Z,95628.59
2022-09-14T01:01:19.396Z,95630.78
2022-09-14T01:03:47.386Z,95631.72
2022-09-14T01:06:19.457Z,95615.81
2022-09-14T01:09:08.210Z,95616.91
2022-09-14T01:11:49.550Z,95614.03
2022-09-14T01:14:27.186Z,95625.72
2022-09-14T01:17:00.647Z,95529.84
2022-09-14T01:19:38.804Z,95633.84
2022-09-14T01:22:11.337Z,95630.22
2022-09-14T01:24:45.728Z,95633.63
2022-09-14T01:27:22.968Z,95639.97
2022-09-14T01:29:52.915Z,95628.31
2022-09-14T01:32:23.665Z,95622.34
2022-09-14T01:34:58.921Z,95616.31
2022-09-14T01:37:29.510Z,95572.16
2022-09-14T01:40:01.448Z,95607.66
2022-09-14T01:42:32.139Z,95594.19
2022-09-14T01:45:03.171Z,95598.47
2022-09-14T01:47:33.044Z,95591.72
2022-09-14T01:50:04.552Z,95585.81
2022-09-14T01:52:36.903Z,95583.16
2022-09-14T01:55:09.039Z,95578.09
2022-09-14T01:57:41.912Z,95577.28
2022-09-14T02:00:12.864Z,95581.34
2022-09-14T02:02:43.819Z,95574.25
2022-09-14T02:05:16.953Z,95571.66
2022-09-14T02:07:45.002Z,95572.19
2022-09-14T02:10:15.321Z,95575.75
2022-09-14T02:12:45.247Z,95584.56
2022-09-14T02:15:14.927Z,95583.88
2022-09-14T02:17:43.272Z,95577.59
2022-09-14T02:20:16.234Z,95576.78
2022-09-14T02:22:44.518Z,95576.84
2022-09-14T02:25:12.741Z,95581.63
2022-09-14T02:27:40.635Z,95574.47
2022-09-14T02:30:11.588Z,95571.06
2022-09-14T02:32:44.833Z,95544.03
2022-09-14T02:35:17.759Z,95564.84
2022-09-14T02:37:51.593Z,95566.84
2022-09-14T02:40:27.008Z,95560.66
2022-09-14T02:43:02.280Z,95561.00
2022-09-14T02:45:36.943Z,95570.84
2022-09-14T02:48:10.747Z,95555.16
2022-09-14T02:50:41.879Z,95527.50
2022-09-14T02:53:14.477Z,95577.31
2022-09-14T02:55:45.445Z,95478.16
2022-09-14T02:58:14.786Z,95563.53
2022-09-14T03:00:45.640Z,95550.66
2022-09-14T03:03:15.133Z,95568.47
2022-09-14T03:05:43.794Z,95571.41
2022-09-14T03:08:12.200Z,95576.56
2022-09-14T03:10:43.410Z,95578.59
2022-09-14T03:13:11.676Z,95580.81
2022-09-14T03:15:40.213Z,95567.44
2022-09-14T03:18:14.139Z,95568.03
2022-09-14T03:20:42.770Z,95555.19
2022-09-14T03:23:11.685Z,95553.41
2022-09-14T03:25:40.726Z,95546.41
2022-09-14T03:28:09.513Z,95556.63
2022-09-14T03:30:37.794Z,95549.22
2022-09-14T03:33:05.819Z,95544.78
2022-09-14T03:35:35.276Z,95540.81
2022-09-14T03:38:04.154Z,95530.09
2022-09-14T03:40:32.199Z,95531.78
2022-09-14T03:43:00.169Z,95528.34
2022-09-14T03:45:28.064Z,95528.91
2022-09-14T03:47:55.965Z,95526.78
2022-09-14T03:50:23.934Z,95522.22
2022-09-14T03:52:53.460Z,95525.84
2022-09-14T03:55:21.430Z,95524.88
2022-09-14T03:57:49.395Z,95524.72
2022-09-14T04:00:17.738Z,95525.47
2022-09-14T04:02:45.907Z,95521.31
2022-09-14T04:05:13.833Z,95515.41
2022-09-14T04:07:41.739Z,95517.97
2022-09-14T04:10:11.501Z,95516.66
2022-09-14T04:12:40.260Z,95480.50
2022-09-14T04:15:09.630Z,95515.78
2022-09-14T04:17:37.510Z,95494.75
2022-09-14T04:20:06.152Z,95519.22
2022-09-14T04:22:35.225Z,95510.50
2022-09-14T04:25:03.359Z,95435.50
2022-09-14T04:27:32.741Z,95506.59
2022-09-14T04:30:00.650Z,95503.66
2022-09-14T04:32:33.503Z,95501.16
2022-09-14T04:35:02.306Z,95505.19
2022-09-14T04:37:32.239Z,95496.78
2022-09-14T04:40:00.401Z,95513.69
2022-09-14T04:42:28.382Z,95511.00
2022-09-14T04:44:57.767Z,95504.59
2022-09-14T04:47:25.653Z,95501.31
2022-09-14T04:49:53.540Z,95505.88
2022-09-14T04:52:22.065Z,95510.28
2022-09-14T04:54:49.938Z,95503.75
2022-09-14T04:57:17.977Z,95507.38
2022-09-14T04:59:45.869Z,95506.88
2022-09-14T05:02:15.347Z,95488.41
2022-09-14T05:04:43.304Z,95509.56
2022-09-14T05:07:11.643Z,95505.53
2022-09-14T05:09:39.725Z,95489.22
2022-09-14T05:12:08.229Z,95514.44
2022-09-14T05:14:36.099Z,95515.81
2022-09-14T05:17:04.577Z,95519.94
2022-09-14T05:19:33.898Z,95514.50
2022-09-14T05:22:01.881Z,95512.97
2022-09-14T05:24:29.766Z,95516.34
2022-09-14T05:27:01.030Z,95505.91
2022-09-14T05:29:31.883Z,95513.44
2022-09-14T05:31:59.982Z,95509.53
2022-09-14T05:34:27.897Z,95495.91
2022-09-14T05:36:57.125Z,95499.03
2022-09-14T05:39:25.029Z,95501.94
2022-09-14T05:41:53.169Z,95500.31
2022-09-14T05:44:20.993Z,95489.84
2022-09-14T05:46:48.884Z,95477.41
2022-09-14T05:49:16.766Z,95481.38
2022-09-14T05:51:44.586Z,95478.47
2022-09-14T05:54:13.795Z,95479.84
2022-09-14T05:56:41.646Z,95470.72
2022-09-14T05:59:10.802Z,95472.41
2022-09-14T06:01:38.696Z,95474.72
2022-09-14T06:04:06.570Z,95475.47
2022-09-14T06:06:34.685Z,95486.38
2022-09-14T06:09:02.629Z,95479.41
2022-09-14T06:11:33.831Z,95470.53
2022-09-14T06:14:01.944Z,95467.38
2022-09-14T06:16:30.369Z,95477.00
2022-09-14T06:18:59.318Z,95463.47
2022-09-14T06:21:29.787Z,95479.31
2022-09-14T06:23:58.009Z,95477.25
2022-09-14T06:26:26.286Z,95475.88
2022-09-14T06:28:55.521Z,95476.19
2022-09-14T06:31:25.074Z,95477.59
2022-09-14T06:33:53.918Z,95483.63
2022-09-14T06:36:23.532Z,95492.91
2022-09-14T06:38:53.083Z,95491.53
2022-09-14T06:41:23.141Z,95491.56
2022-09-14T06:43:52.231Z,95505.81
2022-09-14T06:46:23.599Z,95493.41
2022-09-14T06:48:53.926Z,95500.00
2022-09-14T06:51:24.073Z,95499.38
2022-09-14T06:53:53.799Z,95508.22
2022-09-14T06:56:22.235Z,95502.91
2022-09-14T06:58:52.163Z,95502.59
2022-09-14T07:01:22.844Z,95503.38
2022-09-14T07:03:52.303Z,95504.19
2022-09-14T07:06:22.022Z,95515.94
2022-09-14T07:08:51.016Z,95511.44
2022-09-14T07:11:20.148Z,95514.19
2022-09-14T07:13:48.365Z,95513.72
2022-09-14T07:16:17.012Z,95517.28
2022-09-14T07:18:46.199Z,95507.75
2022-09-14T07:21:15.553Z,95511.28
2022-09-14T07:23:45.154Z,95516.63
2022-09-14T07:26:15.035Z,95504.84
2022-09-14T07:28:43.647Z,95509.06
2022-09-14T07:31:17.289Z,95517.47
2022-09-14T07:33:46.565Z,95516.31
2022-09-14T07:36:14.899Z,95516.31
2022-09-14T07:38:56.083Z,95532.78
2022-09-14T07:41:26.097Z,95520.81
2022-09-14T07:43:56.645Z,95498.84
2022-09-14T07:46:25.156Z,95525.47
2022-09-14T07:48:57.639Z,95528.03
2022-09-14T07:51:26.101Z,95524.50
2022-09-14T07:53:54.212Z,95526.75
2022-09-14T07:56:22.555Z,95532.91
2022-09-14T07:58:56.660Z,95520.97
2022-09-14T08:01:30.549Z,95521.91
2022-09-14T08:04:05.354Z,95526.75
2022-09-14T08:06:33.679Z,95521.41
2022-09-14T08:09:01.592Z,95533.50
2022-09-14T08:11:31.254Z,95533.19
2022-09-14T08:14:00.949Z,95528.03
2022-09-14T08:16:30.144Z,95524.75
2022-09-14T08:19:00.851Z,95530.25
2022-09-14T08:21:30.180Z,95535.28
2022-09-14T08:23:58.590Z,95549.03
2022-09-14T08:26:27.649Z,95563.19
2022-09-14T08:28:56.482Z,95566.13
2022-09-14T08:31:25.707Z,95535.03
2022-09-14T08:33:54.886Z,95573.34
2022-09-14T08:36:25.216Z,95581.22
2022-09-14T08:38:53.307Z,95570.59
2022-09-14T08:41:28.841Z,95580.19
2022-09-14T08:43:56.965Z,95576.75
2022-09-14T08:46:30.018Z,95584.91
2022-09-14T08:48:58.267Z,95583.53
2022-09-14T08:51:27.795Z,95585.41
2022-09-14T08:53:59.458Z,95580.19
2022-09-14T08:56:31.973Z,95578.88
2022-09-14T08:59:16.307Z,95563.00
2022-09-14T09:01:50.098Z,95546.56
2022-09-14T09:04:34.755Z,95534.63
2022-09-14T09:07:11.085Z,95524.06
2022-09-14T09:09:44.494Z,95525.69
2022-09-14T09:12:17.685Z,95533.19
2022-09-14T09:14:49.861Z,95546.84
2022-09-14T09:17:22.890Z,95550.94
2022-09-14T09:19:59.522Z,95554.69
2022-09-14T09:22:31.769Z,95550.13
2022-09-14T09:24:59.898Z,95550.69
2022-09-14T09:27:37.211Z,95546.91
2022-09-14T09:30:06.598Z,95553.16
2022-09-14T09:32:36.322Z,95556.22
2022-09-14T09:35:06.421Z,95560.97
2022-09-14T09:37:39.402Z,95564.53
2022-09-14T09:40:15.691Z,95551.22
2022-09-14T09:43:05.317Z,95547.25
2022-09-14T09:45:48.975Z,95521.75
2022-09-14T09:48:17.595Z,95538.34
2022-09-14T09:50:51.666Z,95545.41
2022-09-14T09:53:23.272Z,95535.03
2022-09-14T09:55:55.761Z,95535.13
2022-09-14T09:58:39.649Z,95542.50
2022-09-14T10:01:12.424Z,95547.56
2022-09-14T10:03:41.735Z,95542.88
2022-09-14T10:06:11.295Z,95556.31
2022-09-14T10:08:43.885Z,95566.84
2022-09-14T10:11:34.146Z,95563.25
2022-09-14T10:14:02.065Z,95548.16
2022-09-14T10:16:34.920Z,95554.97
2022-09-14T10:19:03.570Z,95558.56
2022-09-14T10:21:32.370Z,95555.97
2022-09-14T10:24:07.119Z,95553.88
2022-09-14T10:26:37.021Z,95553.13
2022-09-14T10:29:38.578Z,95548.41
2022-09-14T10:32:17.629Z,95546.09
2022-09-14T10:34:45.699Z,95535.16
2022-09-14T10:37:32.101Z,95537.56
2022-09-14T10:40:14.336Z,95535.03
2022-09-14T10:42:50.476Z,95532.41
2022-09-14T10:45:22.634Z,95527.94
2022-09-14T10:48:15.796Z,95535.53
2022-09-14T10:50:53.430Z,95529.06
2022-09-14T10:53:34.394Z,95525.78
2022-09-14T10:56:07.458Z,95522.81
2022-09-14T10:59:07.476Z,95516.75
2022-09-14T11:01:57.696Z,95504.06
2022-09-14T11:04:41.364Z,95491.31
2022-09-14T11:07:12.880Z,95499.38
2022-09-14T11:09:44.990Z,95485.25
2022-09-14T11:12:18.413Z,95484.78
2022-09-14T11:14:58.671Z,95486.63
2022-09-14T11:17:41.326Z,95479.28
2022-09-14T11:20:18.295Z,95460.03
2022-09-14T11:22:51.754Z,95466.28
2022-09-14T11:25:23.107Z,95453.06
2022-09-14T11:27:55.687Z,95443.47
2022-09-14T11:30:25.198Z,95434.78
2022-09-14T11:32:56.106Z,95439.84
2022-09-14T11:35:30.373Z,95433.31
2022-09-14T11:38:00.903Z,95432.28
2022-09-14T11:40:31.948Z,95421.81
2022-09-14T11:43:05.942Z,95413.84
2022-09-14T11:45:37.713Z,95408.75
2022-09-14T11:48:38.598Z,95405.16
2022-09-14T11:51:03.791Z,95394.22
2022-09-14T11:53:32.711Z,95387.91
2022-09-14T11:56:01.055Z,95375.66
2022-09-14T11:58:30.914Z,95378.00
2022-09-14T12:01:11.437Z,95365.41
2022-09-14T12:04:07.690Z,95367.34
2022-09-14T12:06:54.152Z,95346.53
2022-09-14T12:09:54.993Z,95355.34
2022-09-14T12:12:38.037Z,95346.13
2022-09-14T12:15:19.798Z,95343.25
2022-09-14T12:17:48.397Z,95346.03
2022-09-14T12:20:37.600Z,95345.22
2022-09-14T12:23:07.790Z,95342.09
2022-09-14T12:25:36.133Z,95339.47
2022-09-14T12:28:04.099Z,95331.44
2022-09-14T12:31:23.305Z,95335.06
2022-09-14T12:34:27.617Z,95301.31
2022-09-14T12:37:28.235Z,95339.84
2022-09-14T12:40:33.772Z,95338.19
2022-09-14T12:43:47.354Z,95335.88
2022-09-14T12:46:48.056Z,95334.16
2022-09-14T12:49:32.109Z,95329.75
2022-09-14T12:52:05.880Z,95329.69
2022-09-14T12:54:46.054Z,95311.81
2022-09-14T12:57:28.792Z,95338.19
2022-09-14T13:00:06.416Z,95347.94
2022-09-14T13:03:15.785Z,95349.81
2022-09-14T13:05:46.804Z,95355.25
2022-09-14T13:08:21.996Z,95352.38
2022-09-14T13:10:53.013Z,95332.69
2022-09-14T13:13:23.530Z,95342.88
2022-09-14T13:15:54.703Z,95347.94
2022-09-14T13:18:34.183Z,95351.03
2022-09-14T13:21:05.142Z,95349.13
2022-09-14T13:23:38.511Z,95340.59
2022-09-14T13:26:11.389Z,95351.28
2022-09-14T13:28:40.358Z,95315.53
2022-09-14T13:31:14.350Z,95350.00
2022-09-14T13:33:48.879Z,95322.84
2022-09-14T13:36:21.610Z,95347.69
2022-09-14T13:38:49.646Z,95348.63
2022-09-14T13:41:22.300Z,95345.72
2022-09-14T13:43:52.447Z,95351.09
2022-09-14T13:46:20.772Z,95341.56
2022-09-14T13:48:49.219Z,95343.63
2022-09-14T13:51:17.746Z,95335.28
2022-09-14T13:53:48.823Z,95333.16
2022-09-14T13:56:21.745Z,95327.13
2022-09-14T13:58:51.595Z,95336.75
2022-09-14T14:01:28.112Z,95329.25
2022-09-14T14:03:58.258Z,95339.19
2022-09-14T14:06:27.483Z,95334.28
2022-09-14T14:08:59.644Z,95326.75
2022-09-14T14:11:38.024Z,95332.78
2022-09-14T14:14:13.993Z,95343.31
2022-09-14T14:16:42.433Z,95352.66
2022-09-14T14:19:28.548Z,95346.13
2022-09-14T14:22:17.504Z,95343.31
2022-09-14T14:25:12.474Z,95341.16
2022-09-14T14:27:37.651Z,95341.06
2022-09-14T14:30:14.973Z,95338.31
2022-09-14T14:32:42.931Z,95335.91
2022-09-14T14:35:16.135Z,95339.25
2022-09-14T14:37:44.095Z,95341.47
2022-09-14T14:40:14.038Z,95338.88
2022-09-14T14:42:42.585Z,95342.09
2022-09-14T14:45:14.958Z,95340.25
2022-09-14T14:47:42.876Z,95344.41
2022-09-14T14:50:15.762Z,95341.84
2022-09-14T14:52:43.861Z,95326.28
2022-09-14T14:55:13.489Z,95336.50
2022-09-14T14:57:41.507Z,95328.88
2022-09-14T15:00:15.712Z,95336.38
2022-09-14T15:02:43.602Z,95337.78
2022-09-14T15:05:12.107Z,95342.03
2022-09-14T15:07:40.113Z,95339.84
2022-09-14T15:10:09.630Z,95342.50
2022-09-14T15:12:39.387Z,95342.84
2022-09-14T15:15:09.036Z,95339.47
2022-09-14T15:17:36.929Z,95345.97
2022-09-14T15:20:05.512Z,95350.75
2022-09-14T15:22:33.432Z,95339.03
2022-09-14T15:25:01.321Z,95339.69
2022-09-14T15:27:29.337Z,95327.44
2022-09-14T15:29:58.665Z,95329.53
2022-09-14T15:32:26.620Z,95332.78
2022-09-14T15:34:54.862Z,95295.72
2022-09-14T15:37:22.778Z,95312.16
2022-09-14T15:39:50.883Z,95303.25
2022-09-14T15:42:19.382Z,95323.09
2022-09-14T15:44:47.397Z,95321.88
2022-09-14T15:47:17.051Z,95325.00
2022-09-14T15:49:45.217Z,95311.00
2022-09-14T15:52:13.497Z,95302.75
2022-09-14T15:54:41.397Z,95293.47
2022-09-14T15:57:11.877Z,95290.69
2022-09-14T15:59:40.153Z,95289.41
2022-09-14T16:02:08.601Z,95289.13
2022-09-14T16:04:38.812Z,95295.41
2022-09-14T16:07:09.919Z,95304.84
2022-09-14T16:09:38.842Z,95292.63
2022-09-14T16:12:07.147Z,95286.03
2022-09-14T16:14:35.067Z,95296.47
2022-09-14T16:17:03.414Z,95289.25
2022-09-14T16:19:31.414Z,95281.03
2022-09-14T16:22:00.677Z,95269.22
2022-09-14T16:24:28.777Z,95265.00
2022-09-14T16:26:57.910Z,95250.38
2022-09-14T16:29:25.999Z,95261.53
2022-09-14T16:31:54.903Z,95245.13
2022-09-14T16:34:26.255Z,95255.13
2022-09-14T16:36:54.393Z,95243.50
2022-09-14T16:39:25.381Z,95239.44
2022-09-14T16:41:55.635Z,95244.22
2022-09-14T16:44:27.806Z,95225.91
2022-09-14T16:46:57.682Z,95244.78
2022-09-14T16:49:27.848Z,95237.16
2022-09-14T16:51:56.498Z,95229.28
2022-09-14T16:54:26.683Z,95239.09
2022-09-14T16:56:57.058Z,95232.88
2022-09-14T16:59:25.596Z,95244.28
2022-09-14T17:01:55.180Z,95236.25
2022-09-14T17:04:24.314Z,95231.16
2022-09-14T17:06:52.948Z,95229.13
2022-09-14T17:09:23.290Z,95222.63
2022-09-14T17:11:54.048Z,95209.00
2022-09-14T17:14:23.328Z,95206.22
2022-09-14T17:16:51.319Z,95203.00
2022-09-14T17:19:19.340Z,95205.59
2022-09-14T17:21:48.062Z,95208.09
2022-09-14T17:24:17.362Z,95200.78
2022-09-14T17:26:45.350Z,95201.16
2022-09-14T17:29:15.274Z,95189.69
2022-09-14T17:31:44.393Z,95181.69
2022-09-14T17:34:13.849Z,95183.03
2022-09-14T17:36:42.315Z,95173.19
2022-09-14T17:39:12.550Z,95169.94
2022-09-14T17:41:40.889Z,95161.63
2022-09-14T17:44:10.700Z,95178.53
2022-09-14T17:46:48.270Z,95173.56
2022-09-14T17:49:20.740Z,95179.25
2022-09-14T17:51:49.189Z,95174.81
2022-09-14T17:54:17.735Z,95192.31
2022-09-14T17:56:45.779Z,95204.41
2022-09-14T17:59:15.386Z,95204.19
2022-09-14T18:01:44.629Z,95192.03
2022-09-14T18:04:15.212Z,95188.25
2022-09-14T18:06:45.436Z,95178.91
2022-09-14T18:09:16.132Z,95178.84
2022-09-14T18:11:44.371Z,95190.53
2022-09-14T18:14:13.946Z,95223.59
2022-09-14T18:16:42.687Z,95243.72
2022-09-14T18:19:12.428Z,95238.84
2022-09-14T18:21:40.473Z,95236.19
2022-09-14T18:24:08.524Z,95251.16
2022-09-14T18:26:38.213Z,95255.56
2022-09-14T18:29:06.121Z,95261.13
2022-09-14T18:31:34.312Z,95280.13
2022-09-14T18:34:02.514Z,95268.31
2022-09-14T18:36:32.386Z,95285.22
2022-09-14T18:39:00.337Z,95304.13
2022-09-14T18:41:29.161Z,95328.63
2022-09-14T18:43:57.052Z,95321.81
2022-09-14T18:46:28.194Z,95342.56
2022-09-14T18:48:58.169Z,95361.38
2022-09-14T18:51:26.497Z,95376.09
2022-09-14T18:53:58.777Z,95370.38
2022-09-14T18:56:26.776Z,95385.31
2022-09-14T18:58:54.716Z,95350.00
2022-09-14T19:01:22.791Z,95358.94
2022-09-14T19:03:50.829Z,95357.25
2022-09-14T19:06:19.937Z,95315.69
2022-09-14T19:08:48.107Z,95352.34
2022-09-14T19:11:18.902Z,95310.78
2022-09-14T19:13:47.519Z,95338.91
2022-09-14T19:16:16.839Z,95330.88
2022-09-14T19:18:46.425Z,95331.78
2022-09-14T19:21:16.260Z,95337.03
2022-09-14T19:23:44.210Z,95324.53
2022-09-14T19:26:14.668Z,95300.72
2022-09-14T19:28:44.401Z,95301.06
2022-09-14T19:31:13.845Z,95289.44
2022-09-14T19:33:45.203Z,95282.03
2022-09-14T19:36:15.671Z,95269.06
2022-09-14T19:38:43.758Z,95276.31
2022-09-14T19:41:11.774Z,95262.72
2022-09-14T19:43:39.996Z,95274.34
2022-09-14T19:46:11.069Z,95282.66
2022-09-14T19:48:39.637Z,95295.53
2022-09-14T19:51:09.816Z,95291.03
2022-09-14T19:53:38.729Z,95265.66
2022-09-14T19:56:08.278Z,95288.41
2022-09-14T19:58:36.840Z,95277.44
2022-09-14T20:01:05.675Z,95277.31
2022-09-14T20:03:36.812Z,95282.84
2022-09-14T20:06:06.495Z,95278.94
2022-09-14T20:08:35.316Z,95263.19
2022-09-14T20:11:07.096Z,95266.44
2022-09-14T20:13:35.213Z,95246.66
2022-09-14T20:16:10.792Z,95263.00
2022-09-14T20:18:40.198Z,95250.50
2022-09-14T20:21:10.056Z,95257.63
2022-09-14T20:23:48.631Z,95261.91
2022-09-14T20:26:27.049Z,95253.69
2022-09-14T20:28:55.284Z,95260.22
2022-09-14T20:31:23.566Z,95270.03
2022-09-14T20:33:52.985Z,95272.53
2022-09-14T20:36:22.417Z,95255.47
2022-09-14T20:38:54.147Z,95273.44
2022-09-14T20:41:23.105Z,95259.63
2022-09-14T20:43:51.124Z,95281.72
2022-09-14T20:46:20.434Z,95284.97
2022-09-14T20:48:49.069Z,95297.25
2022-09-14T20:51:20.689Z,95296.81
2022-09-14T20:53:49.007Z,95293.09
2022-09-14T20:56:18.884Z,95296.81
2022-09-14T20:58:47.390Z,95301.59
2022-09-14T21:01:16.785Z,95268.78
2022-09-14T21:03:45.917Z,95277.06
2022-09-14T21:06:25.464Z,95287.06
2022-09-14T21:08:53.807Z,95240.41
2022-09-14T21:11:24.555Z,95280.84
2022-09-14T21:13:53.945Z,95276.56
2022-09-14T21:16:23.444Z,95283.31
2022-09-14T21:18:55.665Z,95270.84
2022-09-14T21:21:25.197Z,95285.50
2022-09-14T21:23:54.013Z,95293.25
2022-09-14T21:26:21.907Z,95281.06
2022-09-14T21:28:50.179Z,95278.91
2022-09-14T21:31:19.985Z,95265.00
2022-09-14T21:33:49.479Z,95305.78
2022-09-14T21:36:18.773Z,95300.94
2022-09-14T21:38:51.046Z,95297.69
2022-09-14T21:41:19.941Z,95301.88
2022-09-14T21:43:47.902Z,95297.59
2022-09-14T21:46:16.294Z,95285.97
2022-09-14T21:48:44.243Z,95307.19
2022-09-14T21:51:18.116Z,95301.69
2022-09-14T21:53:47.265Z,95273.13
2022-09-14T21:56:17.193Z,95306.25
2022-09-14T21:58:45.680Z,95303.44
2022-09-14T22:01:13.831Z,95307.06
2022-09-14T22:03:41.750Z,95309.94
2022-09-14T22:06:13.051Z,95296.25
2022-09-14T22:08:41.933Z,95305.56
2022-09-14T22:11:11.733Z,95251.16
2022-09-14T22:13:41.832Z,95310.56
2022-09-14T22:16:10.589Z,95312.28
2022-09-14T22:18:39.741Z,95312.91
2022-09-14T22:21:08.472Z,95302.28
2022-09-14T22:23:36.874Z,95302.44
2022-09-14T22:26:07.294Z,95276.03
2022-09-14T22:28:35.305Z,95309.03
2022-09-14T22:31:04.684Z,95275.56
2022-09-14T22:33:32.685Z,95302.09
2022-09-14T22:36:02.233Z,95285.44
2022-09-14T22:38:32.236Z,95294.19
2022-09-14T22:41:03.204Z,95278.00
2022-09-14T22:43:31.889Z,95256.72
2022-09-14T22:45:59.827Z,95284.06
2022-09-14T22:48:29.210Z,95284.53
2022-09-14T22:50:58.094Z,95287.13
2022-09-14T22:53:26.961Z,95289.25
2022-09-14T22:55:55.485Z,95280.38
2022-09-14T22:58:25.430Z,95269.66
2022-09-14T23:00:54.040Z,95274.94
2022-09-14T23:03:22.252Z,95278.97
2022-09-14T23:05:53.404Z,95223.78
2022-09-14T23:08:21.628Z,95260.94
2022-09-14T23:10:49.985Z,95281.31
2022-09-14T23:13:18.386Z,95282.91
2022-09-14T23:15:46.449Z,95275.34
2022-09-14T23:18:14.554Z,95268.66
2022-09-14T23:20:44.872Z,95250.28
2022-09-14T23:23:14.161Z,95267.75
2022-09-14T23:25:42.551Z,95260.41
2022-09-14T23:28:12.621Z,95264.19
2022-09-14T23:30:40.746Z,95265.63
2022-09-14T23:33:08.674Z,95243.69
2022-09-14T23:35:37.853Z,95246.56
2022-09-14T23:38:06.071Z,95256.56
2022-09-14T23:40:35.315Z,95260.41
2022-09-14T23:43:03.213Z,95264.53
2022-09-14T23:45:31.131Z,95256.13
2022-09-14T23:47:59.042Z,95263.75
2022-09-14T23:50:28.419Z,95263.16
2022-09-14T23:52:57.562Z,95265.78
2022-09-14T23:55:25.746Z,95268.72
2022-09-14T23:57:55.853Z,95270.56
